.
WxDataArchive / Data Records for 2014-05-22
2014-05-21 May 2014 2014-05-23

Data Records for Thursday, 22 May 2014

Time	Temp	Chill	HIndex	Humid	Dewpt	 Wind 	HiWind	WindDir	Rain 	Barom
-----	----	-----	------	-----	-----	------	------	-------	-----	-----
00:00	68.6	68.6	68.6	70	58.4	0	0	---	0.00	29.843 
00:05	68.6	68.6	68.6	71	58.8	0	0	---	0.00	29.843 
00:10	68.6	68.6	68.6	72	59.2	0	0	---	0.00	29.843 
00:15	68.8	68.8	68.8	73	59.8	0	0	---	0.00	29.842 
00:20	68.8	68.8	68.8	74	60.2	0	0	---	0.00	29.842 
00:25	68.8	68.8	68.8	75	60.5	0	0	---	0.00	29.842 
00:30	68.6	68.6	68.6	76	60.7	0	0	---	0.00	29.839 
00:35	68.6	68.6	68.6	77	61.1	0	0	---	0.00	29.839 
00:40	68.4	68.4	68.4	78	61.3	0	0	---	0.00	29.839 
00:45	68.3	68.3	68.3	79	61.5	0	0	---	0.00	29.838 
00:50	68.3	68.3	68.3	80	61.9	0	1	315	0.00	29.838 
00:55	68.3	68.3	68.3	81	62.2	0	0	---	0.00	29.838 
01:00	68.3	68.3	68.3	81	62.2	0	0	---	0.00	29.837 
01:05	68.3	68.3	68.3	81	62.2	0	1	315	0.00	29.837 
01:10	68.3	68.3	68.3	81	62.2	0	1	315	0.00	29.837 
01:15	68.3	68.3	68.3	82	62.6	0	1	315	0.00	29.837 
01:20	68.1	68.1	68.1	83	62.7	0	0	---	0.00	29.837 
01:25	68.1	68.1	68.1	83	62.7	0	1	315	0.00	29.837 
01:30	68.1	68.1	68.1	83	62.7	0	0	---	0.00	29.824 
01:35	67.9	67.9	67.9	84	62.9	0	0	---	0.00	29.824 
01:40	67.8	67.8	67.8	84	62.8	0	0	---	0.00	29.824 
01:45	67.9	67.9	67.9	85	63.2	0	1	315	0.00	29.816 
01:50	67.8	67.8	67.8	85	63.1	0	0	---	0.00	29.816 
01:55	67.8	67.8	67.8	85	63.1	0	0	---	0.00	29.816 
02:00	67.6	67.6	67.6	85	62.9	0	0	---	0.00	29.809 
02:05	67.3	67.3	67.3	86	63.0	0	0	---	0.00	29.809 
02:10	67.1	67.1	67.1	86	62.8	0	0	---	0.00	29.809 
02:15	66.9	66.9	66.9	86	62.6	0	0	---	0.00	29.808 
02:20	66.8	66.8	66.8	87	62.8	0	0	---	0.00	29.808 
02:25	66.6	66.6	66.6	87	62.6	0	0	---	0.00	29.808 
02:30	66.4	66.4	66.4	88	62.7	0	0	---	0.00	29.819 
02:35	66.4	66.4	66.4	88	62.7	0	0	---	0.00	29.819 
02:40	66.8	66.8	66.8	89	63.4	1	5	315	0.00	29.819 
02:45	67.4	67.4	67.4	89	64.0	2	5	270	0.00	29.827 
02:50	67.8	67.8	67.8	88	64.1	1	3	270	0.00	29.827 
02:55	67.8	67.8	67.8	87	63.8	0	2	270	0.00	29.827 
03:00	67.8	67.8	67.8	87	63.8	0	1	270	0.00	29.835 
03:05	67.6	67.6	67.6	87	63.6	0	1	270	0.00	29.835 
03:10	67.3	67.3	67.3	86	63.0	0	1	270	0.00	29.835 
03:15	67.1	67.1	67.1	86	62.8	0	1	270	0.00	29.839 
03:20	66.8	66.8	66.8	86	62.5	0	1	270	0.00	29.839 
03:25	66.4	66.4	66.4	85	61.7	0	1	270	0.00	29.839 
03:30	66.3	66.3	66.3	83	61.0	0	0	---	0.00	29.838 
03:35	66.0	66.0	66.0	81	60.0	0	1	270	0.00	29.838 
03:40	66.0	66.0	66.0	79	59.3	0	0	---	0.00	29.838 
03:45	65.8	65.8	65.8	77	58.4	0	1	270	0.00	29.839 
03:50	65.6	65.6	65.6	76	57.8	0	0	---	0.00	29.839 
03:55	65.5	65.5	65.5	75	57.4	0	0	---	0.00	29.839 
04:00	65.2	65.2	65.2	75	57.1	0	0	---	0.00	29.841 
04:05	64.8	64.8	64.8	75	56.7	0	0	---	0.00	29.841 
04:10	64.5	64.5	64.5	75	56.4	0	0	---	0.00	29.841 
04:15	64.2	64.2	64.2	73	55.4	0	1	270	0.00	29.842 
04:20	64.2	64.2	64.2	72	55.0	0	1	270	0.00	29.842 
04:25	64.0	64.0	64.0	71	54.4	0	1	270	0.00	29.842 
04:30	63.9	63.9	63.9	71	54.3	0	1	270	0.00	29.842 
04:35	63.5	63.5	63.5	70	53.5	0	1	270	0.00	29.842 
04:40	63.4	63.4	63.4	69	53.0	0	0	---	0.00	29.842 
04:45	63.2	63.2	63.2	69	52.9	0	1	270	0.00	29.852 
04:50	62.9	62.9	62.9	69	52.6	0	0	---	0.00	29.852 
04:55	62.7	62.7	62.7	69	52.4	0	1	270	0.00	29.852 
05:00	62.6	62.6	62.6	70	52.7	0	1	270	0.00	29.857 
05:05	62.4	62.4	62.4	70	52.5	0	1	270	0.00	29.857 
05:10	62.3	62.3	62.3	70	52.4	0	1	270	0.00	29.857 
05:15	62.1	62.1	62.1	71	52.6	0	1	270	0.00	29.862 
05:20	61.8	61.8	61.8	71	52.3	0	1	270	0.00	29.862 
05:25	61.6	61.6	61.6	72	52.5	0	1	270	0.00	29.862 
05:30	61.5	61.5	61.5	71	52.0	0	1	270	0.00	29.874 
05:35	61.5	61.5	61.5	72	52.4	0	1	270	0.00	29.874 
05:40	61.3	61.3	61.3	72	52.2	0	1	270	0.00	29.874 
05:45	61.3	61.3	61.3	72	52.2	0	1	270	0.00	29.888 
05:50	61.2	61.2	61.2	72	52.1	0	2	270	0.00	29.888 
05:55	61.0	61.0	61.0	72	51.9	0	1	270	0.00	29.888 
06:00	60.9	60.9	60.9	72	51.8	0	1	270	0.00	29.890 
06:05	60.7	60.7	60.7	73	52.0	0	1	270	0.00	29.890 
06:10	60.4	60.4	60.4	73	51.7	0	1	202	0.00	29.890 
06:15	60.2	60.2	60.2	73	51.5	0	1	202	0.00	29.898 
06:20	59.9	59.9	59.9	74	51.6	0	1	202	0.00	29.898 
06:25	59.9	59.9	59.9	74	51.6	0	1	202	0.00	29.898 
06:30	59.6	59.6	59.6	75	51.7	0	1	202	0.00	29.907 
06:35	59.5	59.5	59.5	75	51.6	0	1	202	0.00	29.907 
06:40	59.5	59.5	59.5	76	51.9	0	1	202	0.00	29.907 
06:45	59.5	59.5	59.5	76	51.9	0	1	202	0.00	29.918 
06:50	59.5	59.5	59.5	76	51.9	0	1	202	0.00	29.918 
06:55	59.3	59.3	59.3	77	52.1	0	1	202	0.00	29.918 
07:00	59.3	59.3	59.3	77	52.1	0	1	202	0.00	29.924 
07:05	59.5	59.5	59.5	77	52.3	0	1	202	0.00	29.924 
07:10	59.5	59.5	59.5	77	52.3	0	1	202	0.00	29.924 
07:15	59.5	59.5	59.5	77	52.3	0	1	202	0.00	29.931 
07:20	59.6	59.6	59.6	77	52.4	0	2	202	0.00	29.931 
07:25	59.8	59.8	59.8	77	52.6	1	3	292	0.00	29.931 
07:30	59.9	59.9	59.9	77	52.7	0	2	292	0.00	29.935 
07:35	60.1	60.1	60.1	77	52.9	0	2	292	0.00	29.935 
07:40	60.4	60.4	60.4	77	53.2	0	1	292	0.00	29.935 
07:45	60.5	60.5	60.5	77	53.2	0	2	292	0.00	29.939 
07:50	60.7	60.7	60.7	76	53.1	1	3	292	0.00	29.939 
07:55	61.0	61.0	61.0	76	53.4	0	2	292	0.00	29.939 
08:00	61.2	61.2	61.2	76	53.6	0	2	292	0.00	29.950 
08:05	61.6	61.6	61.6	75	53.6	0	1	292	0.00	29.950 
08:10	62.0	62.0	62.0	74	53.6	1	4	270	0.00	29.950 
08:15	62.1	62.1	62.1	73	53.3	1	4	315	0.00	29.953 
08:20	62.4	62.4	62.4	73	53.6	0	3	315	0.00	29.953 
08:25	62.7	62.7	62.7	72	53.5	0	2	315	0.00	29.953 
08:30	62.7	62.7	62.7	71	53.2	1	4	315	0.00	29.958 
08:35	62.7	62.7	62.7	72	53.5	1	3	315	0.00	29.958 
08:40	63.1	63.1	63.1	73	54.3	0	3	315	0.00	29.958 
08:45	63.5	63.5	63.5	71	53.9	0	2	315	0.00	29.956 
08:50	64.0	64.0	64.0	70	54.0	0	2	315	0.00	29.956 
08:55	64.2	64.2	64.2	69	53.8	1	3	315	0.00	29.956 
09:00	64.7	64.7	64.7	69	54.3	0	2	315	0.00	29.962 
09:05	64.8	64.8	64.8	66	53.2	1	3	315	0.00	29.962 
09:10	65.0	65.0	65.0	68	54.2	0	2	315	0.00	29.962 
09:15	65.3	65.3	65.3	67	54.1	0	2	315	0.00	29.974 
09:20	65.3	65.3	65.3	65	53.2	1	5	315	0.00	29.974 
09:25	65.3	65.3	65.3	65	53.2	1	4	315	0.00	29.974 
09:30	65.5	65.5	65.5	64	53.0	1	3	315	0.00	29.977 
09:35	65.5	65.5	65.5	64	53.0	1	3	315	0.00	29.977 
09:40	65.8	65.8	65.8	63	52.8	0	3	315	0.00	29.977 
09:45	66.3	66.3	66.3	64	53.7	1	3	315	0.00	29.979 
09:50	66.3	66.3	66.3	62	52.9	1	5	315	0.00	29.979 
09:55	66.6	66.6	66.6	62	53.2	0	4	315	0.00	29.979 
10:00	67.3	67.3	67.3	62	53.8	1	4	22	0.00	29.989 
10:05	66.8	66.8	66.8	60	52.5	1	4	315	0.00	29.989 
10:10	66.9	66.9	66.9	61	53.0	1	4	315	0.00	29.989 
10:15	67.3	67.3	67.3	59	52.5	0	2	90	0.00	29.992 
10:20	67.3	67.3	67.3	59	52.5	1	4	315	0.00	29.992 
10:25	67.6	67.6	67.6	59	52.8	1	3	292	0.00	29.992 
10:30	67.8	67.8	67.8	60	53.4	1	4	292	0.00	29.989 
10:35	67.9	67.9	67.9	59	53.0	1	4	292	0.00	29.989 
10:40	67.1	67.1	67.1	58	51.8	1	3	292	0.00	29.989 
10:45	67.1	67.1	67.1	61	53.2	0	2	292	0.00	29.994 
10:50	67.4	67.4	67.4	59	52.6	1	2	292	0.00	29.994 
10:55	67.9	67.9	67.9	58	52.6	1	5	292	0.00	29.994 
11:00	67.9	67.9	67.9	60	53.5	1	4	292	0.00	30.004 
11:05	67.9	67.9	67.9	56	51.6	1	4	292	0.00	30.004 
11:10	67.6	67.6	67.6	55	50.8	2	5	315	0.00	30.004 
11:15	68.3	68.3	68.3	57	52.5	1	3	315	0.00	30.005 
11:20	68.6	68.6	68.6	54	51.3	1	4	315	0.00	30.005 
11:25	68.6	68.6	68.6	54	51.3	1	4	315	0.00	30.005 
11:30	68.8	68.8	68.8	51	49.9	2	5	292	0.00	30.015 
11:35	69.1	69.1	69.1	51	50.2	1	4	292	0.00	30.015 
11:40	69.1	69.1	69.1	50	49.7	2	6	292	0.00	30.015 
11:45	69.3	69.3	69.3	49	49.3	2	5	292	0.00	30.022 
11:50	69.1	69.1	69.1	50	49.7	2	4	315	0.00	30.022 
11:55	68.8	68.8	68.8	50	49.4	2	4	315	0.00	30.022 
12:00	68.9	68.9	68.9	50	49.5	1	4	292	0.00	30.026 
12:05	68.9	68.9	68.9	49	48.9	3	5	292	0.00	30.026 
12:10	68.6	68.6	68.6	50	49.2	1	4	315	0.00	30.026 
12:15	68.9	68.9	68.9	50	49.5	3	5	292	0.00	30.025 
12:20	69.3	69.3	69.3	49	49.3	2	4	292	0.00	30.025 
12:25	69.6	69.6	69.6	50	50.1	2	5	292	0.00	30.025 
12:30	69.6	69.6	69.6	46	47.9	2	6	338	0.00	30.022 
12:35	69.6	69.6	69.6	48	49.0	1	3	338	0.00	30.022 
12:40	69.8	69.8	69.8	47	48.6	2	5	315	0.00	30.022 
12:45	69.6	69.6	69.6	48	49.0	2	6	315	0.00	30.021 
12:50	69.6	69.6	69.6	48	49.0	2	4	270	0.00	30.021 
12:55	68.9	68.9	68.9	47	47.8	3	6	270	0.00	30.021 
13:00	69.3	69.3	69.3	49	49.3	2	6	338	0.00	30.025 
13:05	69.4	69.4	69.4	48	48.8	2	6	338	0.00	30.025 
13:10	69.4	69.4	69.4	46	47.7	3	9	315	0.00	30.025 
13:15	69.6	69.6	69.6	47	48.5	3	7	315	0.00	30.022 
13:20	69.8	69.8	69.8	45	47.5	3	6	338	0.00	30.022 
13:25	70.1	70.1	70.1	47	48.9	2	6	315	0.00	30.022 
13:30	69.9	69.9	69.9	47	48.7	2	4	292	0.00	30.021 
13:35	69.9	69.9	69.9	46	48.2	3	6	292	0.00	30.021 
13:40	70.4	70.4	70.4	46	48.6	3	5	292	0.00	30.021 
13:45	70.3	70.3	70.3	45	47.9	2	4	292	0.00	30.017 
13:50	70.3	70.3	70.3	48	49.7	3	6	315	0.00	30.017 
13:55	70.8	70.8	70.8	47	49.6	2	4	315	0.00	30.017 
14:00	70.4	70.4	70.4	45	48.0	3	7	338	0.00	30.021 
14:05	70.3	70.3	70.3	45	47.9	3	7	315	0.00	30.021 
14:10	70.1	70.1	70.1	47	48.9	2	5	338	0.00	30.021 
14:15	69.6	69.6	69.6	45	47.3	3	7	315	0.00	30.022 
14:20	69.6	69.6	69.6	48	49.0	1	5	315	0.00	30.022 
14:25	69.9	69.9	69.9	46	48.2	2	5	315	0.00	30.022 
14:30	69.9	69.9	69.9	46	48.2	2	5	315	0.00	30.024 
14:35	70.3	70.3	70.3	45	47.9	3	6	315	0.00	30.024 
14:40	70.3	70.3	70.3	46	48.5	3	6	315	0.00	30.024 
14:45	70.3	70.3	70.3	46	48.5	3	9	315	0.00	30.026 
14:50	70.1	70.1	70.1	45	47.8	3	5	315	0.00	30.026 
14:55	70.1	70.1	70.1	46	48.3	2	5	315	0.00	30.026 
15:00	70.3	70.3	70.3	45	47.9	2	6	292	0.00	30.031 
15:05	70.1	70.1	70.1	44	47.2	3	9	315	0.00	30.031 
15:10	70.1	70.1	70.1	45	47.8	3	5	270	0.00	30.031 
15:15	70.3	70.3	70.3	46	48.5	3	6	315	0.00	30.036 
15:20	70.4	70.4	70.4	45	48.0	3	5	292	0.00	30.036 
15:25	70.4	70.4	70.4	46	48.6	3	5	270	0.00	30.036 
15:30	70.6	70.6	70.6	44	47.6	2	5	292	0.00	30.030 
15:35	70.1	70.1	70.1	46	48.3	3	9	292	0.00	30.030 
15:40	70.1	70.1	70.1	48	49.5	2	6	292	0.00	30.030 
15:45	70.1	70.1	70.1	46	48.3	3	6	338	0.00	30.033 
15:50	70.4	70.4	70.4	45	48.0	2	5	292	0.00	30.033 
15:55	70.1	70.1	70.1	45	47.8	3	7	292	0.00	30.033 
16:00	70.3	70.3	70.3	45	47.9	2	5	315	0.00	30.026 
16:05	70.3	70.3	70.3	45	47.9	2	6	315	0.00	30.026 
16:10	70.4	70.4	70.4	44	47.4	2	5	315	0.00	30.026 
16:15	70.8	70.8	70.8	44	47.8	3	7	315	0.00	30.022 
16:20	70.9	70.9	70.9	43	47.3	2	7	315	0.00	30.022 
16:25	70.8	70.8	70.8	44	47.8	3	6	270	0.00	30.022 
16:30	70.8	70.8	70.8	44	47.8	4	6	292	0.00	30.012 
16:35	70.3	70.3	70.3	42	46.1	3	6	338	0.00	30.012 
16:40	69.9	69.9	69.9	43	46.4	3	7	338	0.00	30.012 
16:45	70.1	70.1	70.1	45	47.8	2	6	315	0.00	30.007 
16:50	69.9	69.9	69.9	44	47.0	2	6	315	0.00	30.007 
16:55	69.6	69.6	69.6	44	46.7	2	7	338	0.00	30.007 
17:00	69.3	69.3	69.3	44	46.4	2	4	315	0.00	30.002 
17:05	69.9	69.9	69.9	44	47.0	3	7	315	0.00	30.002 
17:10	70.1	70.1	70.1	44	47.2	3	5	315	0.00	30.002 
17:15	69.8	69.8	69.8	44	46.9	3	6	292	0.00	30.012 
17:20	69.9	69.9	69.9	46	48.2	2	5	315	0.00	30.012 
17:25	70.3	70.3	70.3	43	46.7	3	6	270	0.00	30.012 
17:30	69.9	69.9	69.9	44	47.0	3	6	315	0.00	30.009 
17:35	69.6	69.6	69.6	45	47.3	2	5	315	0.00	30.009 
17:40	69.1	69.1	69.1	45	46.9	2	5	315	0.00	30.009 
17:45	68.9	68.9	68.9	43	45.5	2	5	315	0.00	29.995 
17:50	69.1	69.1	69.1	45	46.9	3	7	292	0.00	29.995 
17:55	69.4	69.4	69.4	46	47.7	2	4	292	0.00	29.995 
18:00	69.3	69.3	69.3	43	45.8	3	6	338	0.00	30.001 
18:05	68.9	68.9	68.9	43	45.5	3	6	292	0.00	30.001 
18:10	68.9	68.9	68.9	45	46.7	2	5	315	0.00	30.001 
18:15	68.9	68.9	68.9	45	46.7	2	5	292	0.00	30.011 
18:20	68.9	68.9	68.9	44	46.1	2	7	315	0.00	30.011 
18:25	68.6	68.6	68.6	46	47.0	2	5	315	0.00	30.011 
18:30	68.4	68.4	68.4	45	46.2	2	5	315	0.00	29.993 
18:35	68.3	68.3	68.3	44	45.5	2	6	315	0.00	29.993 
18:40	67.8	67.8	67.8	44	45.1	3	7	292	0.00	29.993 
18:45	67.8	67.8	67.8	45	45.7	2	4	292	0.00	30.028 
18:50	67.4	67.4	67.4	43	44.1	3	6	292	0.00	30.028 
18:55	67.1	67.1	67.1	45	45.0	3	5	270	0.00	30.028 
19:00	66.9	66.9	66.9	46	45.4	2	5	292	0.00	30.023 
19:05	66.9	66.9	66.9	45	44.9	2	6	292	0.00	30.023 
19:10	66.8	66.8	66.8	46	45.3	2	5	338	0.00	30.023 
19:15	66.4	66.4	66.4	46	45.0	2	4	292	0.00	30.030 
19:20	66.1	66.1	66.1	47	45.3	2	4	292	0.00	30.030 
19:25	66.0	66.0	66.0	47	45.2	1	4	292	0.00	30.030 
19:30	65.8	65.8	65.8	47	45.0	1	4	292	0.00	30.031 
19:35	65.6	65.6	65.6	47	44.8	1	4	292	0.00	30.031 
19:40	65.5	65.5	65.5	47	44.7	1	5	292	0.00	30.031 
19:45	65.3	65.3	65.3	45	43.4	1	3	315	0.00	30.030 
19:50	65.2	65.2	65.2	50	46.1	1	4	315	0.00	30.030 
19:55	65.0	65.0	65.0	49	45.4	2	5	338	0.00	30.030 
20:00	64.7	64.7	64.7	48	44.6	1	4	338	0.00	30.034 
20:05	64.5	64.5	64.5	49	44.9	1	3	315	0.00	30.034 
20:10	64.5	64.5	64.5	49	44.9	1	3	315	0.00	30.034 
20:15	64.3	64.3	64.3	50	45.3	1	5	315	0.00	30.036 
20:20	64.2	64.2	64.2	50	45.2	1	4	292	0.00	30.036 
20:25	64.2	64.2	64.2	50	45.2	1	4	292	0.00	30.036 
20:30	64.0	64.0	64.0	50	45.0	0	2	292	0.00	30.043 
20:35	63.9	63.9	63.9	50	44.9	1	5	315	0.00	30.043 
20:40	63.7	63.7	63.7	51	45.2	0	1	315	0.00	30.043 
20:45	63.7	63.7	63.7	51	45.2	0	2	315	0.00	30.045 
20:50	63.5	63.5	63.5	51	45.0	0	1	315	0.00	30.045 
20:55	63.4	63.4	63.4	52	45.5	0	1	315	0.00	30.045 
21:00	63.2	63.2	63.2	53	45.8	0	1	315	0.00	30.046 
21:05	63.1	63.1	63.1	54	46.2	0	1	315	0.00	30.046 
21:10	62.7	62.7	62.7	54	45.8	0	1	315	0.00	30.046 
21:15	62.4	62.4	62.4	55	46.0	0	2	315	0.00	30.043 
21:20	62.3	62.3	62.3	55	45.9	0	1	315	0.00	30.043 
21:25	62.1	62.1	62.1	56	46.2	0	1	315	0.00	30.043 
21:30	62.0	62.0	62.0	56	46.1	0	2	315	0.00	30.046 
21:35	61.8	61.8	61.8	57	46.4	0	1	315	0.00	30.046 
21:40	61.6	61.6	61.6	57	46.2	0	0	---	0.00	30.046 
21:45	61.3	61.3	61.3	58	46.4	0	1	315	0.00	30.048 
21:50	61.2	61.2	61.2	58	46.3	0	1	315	0.00	30.048 
21:55	60.9	60.9	60.9	59	46.5	0	1	315	0.00	30.048 
22:00	60.7	60.7	60.7	60	46.7	0	1	315	0.00	30.048 
22:05	60.5	60.5	60.5	60	46.5	0	1	315	0.00	30.048 
22:10	60.4	60.4	60.4	61	46.9	0	1	315	0.00	30.048 
22:15	60.2	60.2	60.2	61	46.7	0	0	---	0.00	30.055 
22:20	59.9	59.9	59.9	62	46.8	0	0	---	0.00	30.055 
22:25	59.8	59.8	59.8	62	46.8	0	1	315	0.00	30.055 
22:30	59.6	59.6	59.6	62	46.6	0	1	315	0.00	30.055 
22:35	59.5	59.5	59.5	62	46.5	0	2	315	0.00	30.055 
22:40	59.6	59.6	59.6	62	46.6	0	2	315	0.00	30.055 
22:45	59.6	59.6	59.6	62	46.6	0	2	315	0.00	30.059 
22:50	59.5	59.5	59.5	62	46.5	0	1	315	0.00	30.059 
22:55	59.3	59.3	59.3	62	46.3	0	1	315	0.00	30.059 
23:00	59.2	59.2	59.2	63	46.6	0	1	315	0.00	30.062 
23:05	59.0	59.0	59.0	62	46.0	0	1	315	0.00	30.062 
23:10	58.9	58.9	58.9	63	46.3	0	1	315	0.00	30.062 
23:15	58.9	58.9	58.9	63	46.3	0	1	315	0.00	30.062 
23:20	58.7	58.7	58.7	63	46.1	0	1	315	0.00	30.062 
23:25	58.6	58.6	58.6	64	46.5	0	1	315	0.00	30.062 
23:30	58.3	58.3	58.3	64	46.2	0	1	315	0.00	30.063 
23:35	58.0	58.0	58.0	65	46.3	0	0	---	0.00	30.063 
23:40	57.6	57.6	57.6	65	45.9	0	0	---	0.00	30.063 
23:45	57.3	57.3	57.3	66	46.0	0	0	---	0.00	30.063 
23:50	57.0	57.0	57.0	67	46.2	0	0	---	0.00	30.063 
23:55	56.7	56.7	56.7	68	46.3	0	0	---	0.00	30.063 

CoCoRaHS
IN-AL-39
A2 Web Hosting
Creative Commons License
GoDaddy
search engine by freefind advanced

loaded 2018-11-17 14:34:38 • last modified 2010-11-18 10:43:29
Privacy PolicyDisclaimer
• wx.awcolley.com is powered by PmWiki v.2002016 •
• all content (unless otherwise noted) © 2018 A W Colley